Terminal Aerodrome Forecast
Issued by NWS Jackson, MS

Home | Current Version | Previous Version | Text Only | Print | Product List | Glossary On
Versions: 1 2 3 4 5 6 7 8 9 10 11 12 13 14 15 16 17
505
FTUS44 KMEG 231722
TAFTUP
TAF
KTUP 231722Z 2318/2418 29010G19KT P6SM SCT015
     FM240000 36010KT P6SM SCT015
     FM240400 VRB04KT P6SM SKC
      TEMPO 2408/2412 4SM BR
     FM241300 09003KT P6SM SCT200=

USA.gov is the U.S. government's official web portal to all federal, state and local government web resources and services.